CES9973 ZUUU-ZSHC
Flight info
| Callsign | CES9973 |
|---|---|
| Flight time | 2h 10m |
| Altitude | 33100 |
| Route | UBRAB9W UBRAB B213 WHA R343 UPLEL W95 SAPIN A470 IGRAT IGRAT62 |
| Aircraft | A321/M-SDE3FGHIRWY/LB1 |
Departure
| Time | 2026-05-04 12:38 |
|---|---|
| Airport | Chengdu Shuangliu International Airport (ZUUU) |
Arrival
| Time | 2026-05-04 14:49 |
|---|---|
| Airport | Hangzhou Xiaoshan International Airport (ZSHC) |
| Time | Latitude | Longitude | Altitude | Speed | Heading |
|---|---|---|---|---|---|
| 2026-05-04 12:24 | 30.57245 | 103.95075 | 1652 ft | 1 kts | 16° |
| 2026-05-04 12:27 | 30.57234 | 103.95071 | 1652 ft | 4 kts | 11° |
| 2026-05-04 12:27 | 30.57208 | 103.95070 | 1652 ft | 4 kts | 345° |
| 2026-05-04 12:27 | 30.57186 | 103.95084 | 1652 ft | 4 kts | 303° |
| 2026-05-04 12:27 | 30.57183 | 103.95090 | 1652 ft | 1 kts | 297° |
| 2026-05-04 12:29 | 30.57185 | 103.95087 | 1652 ft | 2 kts | 297° |
| 2026-05-04 12:30 | 30.57195 | 103.95063 | 1652 ft | 5 kts | 296° |
| 2026-05-04 12:30 | 30.57214 | 103.95018 | 1652 ft | 8 kts | 296° |
| 2026-05-04 12:30 | 30.57237 | 103.94945 | 1652 ft | 11 kts | 287° |
| 2026-05-04 12:30 | 30.57258 | 103.94881 | 1652 ft | 8 kts | 291° |
| 2026-05-04 12:31 | 30.57283 | 103.94810 | 1652 ft | 11 kts | 291° |
| 2026-05-04 12:31 | 30.57315 | 103.94714 | 1652 ft | 14 kts | 291° |
| 2026-05-04 12:31 | 30.57392 | 103.94703 | 1652 ft | 14 kts | 21° |
| 2026-05-04 12:31 | 30.57492 | 103.94751 | 1652 ft | 17 kts | 22° |
| 2026-05-04 12:32 | 30.57608 | 103.94806 | 1653 ft | 19 kts | 22° |
| 2026-05-04 12:32 | 30.57871 | 103.94931 | 1652 ft | 22 kts | 22° |
| 2026-05-04 12:32 | 30.57983 | 103.94984 | 1652 ft | 15 kts | 22° |
| 2026-05-04 12:33 | 30.58086 | 103.95033 | 1652 ft | 17 kts | 22° |
| 2026-05-04 12:33 | 30.58203 | 103.95089 | 1652 ft | 19 kts | 22° |
| 2026-05-04 12:33 | 30.58300 | 103.95131 | 1652 ft | 11 kts | 19° |
| 2026-05-04 12:33 | 30.58384 | 103.95166 | 1652 ft | 14 kts | 19° |
| 2026-05-04 12:34 | 30.58488 | 103.95210 | 1652 ft | 17 kts | 23° |
| 2026-05-04 12:34 | 30.58605 | 103.95269 | 1652 ft | 20 kts | 23° |
| 2026-05-04 12:34 | 30.58737 | 103.95334 | 1653 ft | 22 kts | 23° |
| 2026-05-04 12:34 | 30.58854 | 103.95390 | 1653 ft | 17 kts | 21° |
| 2026-05-04 12:35 | 30.58970 | 103.95442 | 1653 ft | 19 kts | 21° |
| 2026-05-04 12:35 | 30.59100 | 103.95501 | 1653 ft | 21 kts | 21° |
| 2026-05-04 12:35 | 30.59139 | 103.95519 | 1653 ft | 6 kts | 21° |
| 2026-05-04 12:35 | 30.59189 | 103.95542 | 1653 ft | 9 kts | 21° |
| 2026-05-04 12:36 | 30.59254 | 103.95571 | 1652 ft | 6 kts | 21° |
| 2026-05-04 12:36 | 30.59296 | 103.95547 | 1652 ft | 9 kts | 309° |
| 2026-05-04 12:36 | 30.59325 | 103.95503 | 1652 ft | 11 kts | 295° |
| 2026-05-04 12:36 | 30.59308 | 103.95376 | 1652 ft | 15 kts | 197° |
| 2026-05-04 12:37 | 30.59202 | 103.95327 | 1653 ft | 19 kts | 202° |
| 2026-05-04 12:37 | 30.58927 | 103.95195 | 1664 ft | 71 kts | 202° |
| 2026-05-04 12:37 | 30.58295 | 103.94904 | 1652 ft | 122 kts | 201° |
| 2026-05-04 12:37 | 30.57374 | 103.94476 | 1651 ft | 163 kts | 202° |
| 2026-05-04 12:38 | 30.56618 | 103.94136 | 1737 ft | 175 kts | 201° |
| 2026-05-04 12:38 | 30.55503 | 103.93608 | 2206 ft | 178 kts | 204° |
| 2026-05-04 12:38 | 30.54360 | 103.93019 | 2673 ft | 181 kts | 202° |
| 2026-05-04 12:38 | 30.53183 | 103.92430 | 3075 ft | 190 kts | 202° |
| 2026-05-04 12:39 | 30.51937 | 103.91805 | 3372 ft | 201 kts | 202° |
| 2026-05-04 12:39 | 30.50617 | 103.91146 | 3681 ft | 213 kts | 202° |
| 2026-05-04 12:39 | 30.49221 | 103.90428 | 3977 ft | 227 kts | 208° |
| 2026-05-04 12:39 | 30.47945 | 103.89230 | 4166 ft | 248 kts | 231° |
| 2026-05-04 12:40 | 30.47180 | 103.87377 | 4453 ft | 265 kts | 258° |
| 2026-05-04 12:40 | 30.47226 | 103.85218 | 4964 ft | 274 kts | 284° |
| 2026-05-04 12:40 | 30.48105 | 103.83299 | 5549 ft | 278 kts | 311° |
| 2026-05-04 12:40 | 30.49690 | 103.82021 | 6168 ft | 282 kts | 340° |
| 2026-05-04 12:41 | 30.51628 | 103.81739 | 6756 ft | 284 kts | 8° |
| 2026-05-04 12:41 | 30.53448 | 103.82470 | 7320 ft | 286 kts | 29° |
| 2026-05-04 12:41 | 30.55057 | 103.83587 | 7881 ft | 289 kts | 31° |
| 2026-05-04 12:41 | 30.56782 | 103.84822 | 8484 ft | 292 kts | 31° |
| 2026-05-04 12:42 | 30.58536 | 103.86036 | 9074 ft | 295 kts | 30° |
| 2026-05-04 12:42 | 30.60312 | 103.87236 | 9693 ft | 297 kts | 29° |
| 2026-05-04 12:42 | 30.62123 | 103.88438 | 10214 ft | 302 kts | 28° |
| 2026-05-04 12:42 | 30.63996 | 103.89666 | 10482 ft | 316 kts | 28° |
| 2026-05-04 12:43 | 30.65957 | 103.90946 | 10700 ft | 332 kts | 28° |
| 2026-05-04 12:43 | 30.68013 | 103.92286 | 10912 ft | 347 kts | 28° |
| 2026-05-04 12:43 | 30.70167 | 103.93692 | 11104 ft | 361 kts | 28° |
| 2026-05-04 12:43 | 30.72267 | 103.95360 | 11437 ft | 371 kts | 42° |
| 2026-05-04 12:44 | 30.73855 | 103.97726 | 11935 ft | 375 kts | 61° |
| 2026-05-04 12:44 | 30.74857 | 104.00525 | 12473 ft | 377 kts | 69° |
| 2026-05-04 12:44 | 30.75734 | 104.03414 | 13019 ft | 379 kts | 69° |
| 2026-05-04 12:44 | 30.76626 | 104.06304 | 13533 ft | 381 kts | 69° |
| 2026-05-04 12:45 | 30.77549 | 104.09215 | 14022 ft | 384 kts | 68° |
| 2026-05-04 12:45 | 30.78482 | 104.12125 | 14460 ft | 386 kts | 68° |
| 2026-05-04 12:45 | 30.79425 | 104.15061 | 14894 ft | 389 kts | 68° |
| 2026-05-04 12:45 | 30.80385 | 104.18025 | 15342 ft | 392 kts | 67° |
| 2026-05-04 12:46 | 30.81350 | 104.21002 | 15777 ft | 395 kts | 67° |
| 2026-05-04 12:46 | 30.82320 | 104.24005 | 16217 ft | 398 kts | 66° |
| 2026-05-04 12:46 | 30.83296 | 104.27034 | 16646 ft | 401 kts | 66° |
| 2026-05-04 12:46 | 30.84277 | 104.30082 | 17085 ft | 404 kts | 66° |
| 2026-05-04 12:47 | 30.85260 | 104.33153 | 17509 ft | 407 kts | 66° |
| 2026-05-04 12:47 | 30.86250 | 104.36249 | 17930 ft | 409 kts | 66° |
| 2026-05-04 12:47 | 30.87226 | 104.39379 | 18336 ft | 413 kts | 68° |
| 2026-05-04 12:47 | 30.88079 | 104.42586 | 18705 ft | 416 kts | 69° |
| 2026-05-04 12:48 | 30.88924 | 104.45815 | 19086 ft | 418 kts | 69° |
| 2026-05-04 12:48 | 30.89778 | 104.49070 | 19471 ft | 421 kts | 69° |
| 2026-05-04 12:48 | 30.90631 | 104.52335 | 19843 ft | 423 kts | 69° |
| 2026-05-04 12:48 | 30.91475 | 104.55581 | 20196 ft | 425 kts | 69° |
| 2026-05-04 12:49 | 30.92332 | 104.58881 | 20558 ft | 427 kts | 69° |
| 2026-05-04 12:49 | 30.93191 | 104.62197 | 20911 ft | 429 kts | 69° |
| 2026-05-04 12:49 | 30.94058 | 104.65531 | 21264 ft | 431 kts | 69° |
| 2026-05-04 12:49 | 30.94928 | 104.68887 | 21606 ft | 434 kts | 69° |
| 2026-05-04 12:50 | 30.95804 | 104.72251 | 21946 ft | 436 kts | 69° |
| 2026-05-04 12:50 | 30.96682 | 104.75643 | 22284 ft | 438 kts | 70° |
| 2026-05-04 12:50 | 30.97563 | 104.79050 | 22629 ft | 440 kts | 70° |
| 2026-05-04 12:50 | 30.98452 | 104.82478 | 22950 ft | 443 kts | 70° |
| 2026-05-04 12:51 | 30.99341 | 104.85923 | 23273 ft | 445 kts | 70° |
| 2026-05-04 12:51 | 31.00228 | 104.89379 | 23581 ft | 447 kts | 70° |
| 2026-05-04 12:51 | 31.01038 | 104.92897 | 23829 ft | 452 kts | 76° |
| 2026-05-04 12:51 | 31.01297 | 104.96571 | 24064 ft | 460 kts | 89° |
| 2026-05-04 12:52 | 31.00782 | 105.00272 | 24293 ft | 467 kts | 104° |
| 2026-05-04 12:52 | 30.99562 | 105.03806 | 24527 ft | 472 kts | 114° |
| 2026-05-04 12:52 | 30.98145 | 105.07266 | 24773 ft | 474 kts | 114° |
| 2026-05-04 12:52 | 30.96723 | 105.10736 | 25015 ft | 476 kts | 114° |
| 2026-05-04 12:53 | 30.95319 | 105.14237 | 25242 ft | 478 kts | 113° |
| 2026-05-04 12:53 | 30.93924 | 105.17767 | 25471 ft | 480 kts | 113° |
| 2026-05-04 12:53 | 30.92527 | 105.21309 | 25692 ft | 482 kts | 113° |
| 2026-05-04 12:53 | 30.91135 | 105.24814 | 25895 ft | 485 kts | 113° |
| 2026-05-04 12:54 | 30.89711 | 105.28387 | 26113 ft | 487 kts | 114° |
| 2026-05-04 12:54 | 30.88280 | 105.31973 | 26325 ft | 489 kts | 114° |
| 2026-05-04 12:54 | 30.86846 | 105.35574 | 26540 ft | 491 kts | 113° |
| 2026-05-04 12:54 | 30.85647 | 105.39291 | 26730 ft | 491 kts | 103° |
| 2026-05-04 12:55 | 30.85124 | 105.43204 | 26924 ft | 489 kts | 89° |
| 2026-05-04 12:55 | 30.85355 | 105.47123 | 27112 ft | 485 kts | 76° |
| 2026-05-04 12:55 | 30.86110 | 105.50942 | 27328 ft | 484 kts | 72° |
| 2026-05-04 12:55 | 30.86948 | 105.54749 | 27541 ft | 486 kts | 71° |
| 2026-05-04 12:56 | 30.87791 | 105.58565 | 27747 ft | 488 kts | 72° |
| 2026-05-04 12:56 | 30.88625 | 105.62396 | 27957 ft | 490 kts | 72° |
| 2026-05-04 12:56 | 30.89447 | 105.66257 | 28153 ft | 492 kts | 72° |
| 2026-05-04 12:56 | 30.90256 | 105.70130 | 28393 ft | 493 kts | 72° |
| 2026-05-04 12:57 | 30.91064 | 105.73999 | 28667 ft | 492 kts | 72° |
| 2026-05-04 12:57 | 30.91877 | 105.77869 | 28946 ft | 491 kts | 72° |
| 2026-05-04 12:57 | 30.92696 | 105.81729 | 29205 ft | 491 kts | 72° |
| 2026-05-04 12:57 | 30.93515 | 105.85607 | 29448 ft | 492 kts | 72° |
| 2026-05-04 12:58 | 30.94324 | 105.89464 | 29715 ft | 491 kts | 72° |
| 2026-05-04 12:58 | 30.95134 | 105.93341 | 29961 ft | 492 kts | 72° |
| 2026-05-04 12:58 | 30.95908 | 105.97208 | 30173 ft | 494 kts | 75° |
| 2026-05-04 12:58 | 30.96221 | 106.01215 | 30330 ft | 500 kts | 88° |
| 2026-05-04 12:59 | 30.95766 | 106.05245 | 30481 ft | 505 kts | 102° |
| 2026-05-04 12:59 | 30.94844 | 106.09199 | 30651 ft | 506 kts | 104° |
| 2026-05-04 12:59 | 30.93868 | 106.13141 | 30804 ft | 507 kts | 104° |
| 2026-05-04 12:59 | 30.92899 | 106.17093 | 30977 ft | 508 kts | 104° |
| 2026-05-04 13:00 | 30.91946 | 106.21056 | 31141 ft | 508 kts | 104° |
| 2026-05-04 13:00 | 30.91001 | 106.25032 | 31294 ft | 509 kts | 104° |
| 2026-05-04 13:00 | 30.90054 | 106.29015 | 31456 ft | 510 kts | 104° |
| 2026-05-04 13:00 | 30.89110 | 106.32994 | 31617 ft | 511 kts | 104° |
| 2026-05-04 13:01 | 30.88101 | 106.36965 | 31778 ft | 513 kts | 109° |
| 2026-05-04 13:01 | 30.86584 | 106.40729 | 31903 ft | 514 kts | 122° |
| 2026-05-04 13:01 | 30.84423 | 106.44020 | 32029 ft | 513 kts | 135° |
| 2026-05-04 13:01 | 30.81855 | 106.46891 | 32169 ft | 513 kts | 140° |
| 2026-05-04 13:02 | 30.79215 | 106.49698 | 32298 ft | 514 kts | 140° |
| 2026-05-04 13:02 | 30.76589 | 106.52513 | 32426 ft | 515 kts | 139° |
| 2026-05-04 13:02 | 30.73967 | 106.55347 | 32555 ft | 516 kts | 139° |
| 2026-05-04 13:02 | 30.71337 | 106.58199 | 32692 ft | 517 kts | 139° |
| 2026-05-04 13:03 | 30.68710 | 106.61048 | 32821 ft | 517 kts | 139° |
| 2026-05-04 13:03 | 30.66072 | 106.63904 | 32960 ft | 519 kts | 140° |
| 2026-05-04 13:03 | 30.63429 | 106.66757 | 33105 ft | 519 kts | 140° |
| 2026-05-04 13:04 | 30.58161 | 106.72447 | 33119 ft | 520 kts | 140° |
| 2026-05-04 13:04 | 30.52876 | 106.78152 | 33087 ft | 520 kts | 140° |
| 2026-05-04 13:05 | 30.47569 | 106.83867 | 33082 ft | 521 kts | 140° |
| 2026-05-04 13:05 | 30.42253 | 106.89589 | 33087 ft | 522 kts | 140° |
| 2026-05-04 13:06 | 30.36932 | 106.95309 | 33087 ft | 521 kts | 140° |
| 2026-05-04 13:06 | 30.31553 | 107.00926 | 33089 ft | 521 kts | 142° |
| 2026-05-04 13:07 | 30.26136 | 107.06492 | 33088 ft | 521 kts | 142° |
| 2026-05-04 13:07 | 30.20711 | 107.12064 | 33089 ft | 522 kts | 142° |
| 2026-05-04 13:08 | 30.15273 | 107.17643 | 33089 ft | 523 kts | 142° |
| 2026-05-04 13:08 | 30.09979 | 107.23450 | 33088 ft | 525 kts | 139° |
| 2026-05-04 13:09 | 30.04753 | 107.29334 | 33091 ft | 525 kts | 139° |
| 2026-05-04 13:09 | 29.99682 | 107.35425 | 33091 ft | 529 kts | 129° |
| 2026-05-04 13:09 | 29.97770 | 107.39063 | 33083 ft | 532 kts | 115° |
| 2026-05-04 13:10 | 29.96500 | 107.43064 | 33095 ft | 532 kts | 106° |
| 2026-05-04 13:10 | 29.94447 | 107.51252 | 33107 ft | 531 kts | 105° |
| 2026-05-04 13:11 | 29.92348 | 107.59418 | 33103 ft | 531 kts | 106° |
| 2026-05-04 13:11 | 29.90621 | 107.67668 | 33095 ft | 529 kts | 92° |
| 2026-05-04 13:11 | 29.90653 | 107.71887 | 33112 ft | 524 kts | 79° |
| 2026-05-04 13:12 | 29.91401 | 107.75962 | 33123 ft | 516 kts | 69° |
| 2026-05-04 13:12 | 29.93492 | 107.83839 | 33129 ft | 513 kts | 68° |
| 2026-05-04 13:13 | 29.95540 | 107.91729 | 33117 ft | 512 kts | 69° |
| 2026-05-04 13:13 | 29.97541 | 107.99625 | 33128 ft | 513 kts | 68° |
| 2026-05-04 13:14 | 29.99520 | 108.07501 | 33134 ft | 512 kts | 69° |
| 2026-05-04 13:14 | 30.01488 | 108.15396 | 33144 ft | 511 kts | 69° |
| 2026-05-04 13:15 | 30.03470 | 108.23269 | 33165 ft | 511 kts | 69° |
| 2026-05-04 13:15 | 30.05431 | 108.31151 | 33160 ft | 510 kts | 69° |
| 2026-05-04 13:16 | 30.07383 | 108.39020 | 33166 ft | 510 kts | 70° |
| 2026-05-04 13:16 | 30.09320 | 108.46843 | 33176 ft | 509 kts | 70° |
| 2026-05-04 13:17 | 30.11261 | 108.54711 | 33178 ft | 508 kts | 69° |
| 2026-05-04 13:17 | 30.13470 | 108.62433 | 33179 ft | 506 kts | 66° |
| 2026-05-04 13:18 | 30.15717 | 108.70147 | 33180 ft | 507 kts | 67° |
| 2026-05-04 13:18 | 30.17918 | 108.77856 | 33174 ft | 505 kts | 67° |
| 2026-05-04 13:19 | 30.20146 | 108.85534 | 33176 ft | 504 kts | 67° |
| 2026-05-04 13:19 | 30.22350 | 108.93213 | 33173 ft | 504 kts | 69° |
| 2026-05-04 13:20 | 30.24311 | 109.01014 | 33165 ft | 504 kts | 69° |
| 2026-05-04 13:20 | 30.26261 | 109.08808 | 33163 ft | 504 kts | 70° |
| 2026-05-04 13:21 | 30.28173 | 109.16612 | 33174 ft | 504 kts | 70° |
| 2026-05-04 13:21 | 30.30080 | 109.24403 | 33175 ft | 504 kts | 70° |
| 2026-05-04 13:22 | 30.31651 | 109.30887 | 33157 ft | 503 kts | 70° |
| 2026-05-04 13:22 | 30.33548 | 109.38686 | 33151 ft | 503 kts | 70° |
| 2026-05-04 13:23 | 30.35447 | 109.46500 | 33159 ft | 503 kts | 70° |
| 2026-05-04 13:23 | 30.37340 | 109.54284 | 33163 ft | 502 kts | 70° |
| 2026-05-04 13:24 | 30.39113 | 109.62116 | 33159 ft | 505 kts | 76° |
| 2026-05-04 13:24 | 30.40295 | 109.70138 | 33157 ft | 506 kts | 77° |
| 2026-05-04 13:25 | 30.42054 | 109.82138 | 33165 ft | 505 kts | 77° |
| 2026-05-04 13:25 | 30.43188 | 109.90171 | 33155 ft | 505 kts | 78° |
| 2026-05-04 13:26 | 30.44358 | 109.98200 | 33164 ft | 505 kts | 77° |
| 2026-05-04 13:26 | 30.45553 | 110.06221 | 33165 ft | 505 kts | 78° |
| 2026-05-04 13:27 | 30.46713 | 110.14254 | 33166 ft | 504 kts | 78° |
| 2026-05-04 13:27 | 30.47865 | 110.22273 | 33156 ft | 505 kts | 78° |
| 2026-05-04 13:28 | 30.49009 | 110.30312 | 33160 ft | 505 kts | 78° |
| 2026-05-04 13:28 | 30.50150 | 110.38355 | 33170 ft | 506 kts | 78° |
| 2026-05-04 13:29 | 30.51288 | 110.46417 | 33173 ft | 507 kts | 78° |
| 2026-05-04 13:29 | 30.52422 | 110.54487 | 33170 ft | 507 kts | 78° |
| 2026-05-04 13:30 | 30.53543 | 110.62558 | 33153 ft | 507 kts | 78° |
| 2026-05-04 13:30 | 30.54678 | 110.70643 | 33149 ft | 508 kts | 78° |
| 2026-05-04 13:31 | 30.55810 | 110.78736 | 33143 ft | 508 kts | 78° |
| 2026-05-04 13:31 | 30.56942 | 110.86764 | 33145 ft | 507 kts | 78° |
| 2026-05-04 13:32 | 30.58034 | 110.94837 | 33142 ft | 507 kts | 79° |
| 2026-05-04 13:32 | 30.59114 | 111.02938 | 33128 ft | 508 kts | 79° |
| 2026-05-04 13:33 | 30.60231 | 111.11021 | 33115 ft | 507 kts | 79° |
| 2026-05-04 13:33 | 30.61315 | 111.19118 | 33120 ft | 508 kts | 79° |
| 2026-05-04 13:34 | 30.62409 | 111.27209 | 33129 ft | 507 kts | 79° |
| 2026-05-04 13:34 | 30.63523 | 111.35300 | 33122 ft | 507 kts | 79° |
| 2026-05-04 13:35 | 30.65115 | 111.47438 | 33104 ft | 507 kts | 82° |
| 2026-05-04 13:36 | 30.65598 | 111.55631 | 33108 ft | 509 kts | 85° |
| 2026-05-04 13:36 | 30.66007 | 111.63839 | 33108 ft | 509 kts | 85° |
| 2026-05-04 13:37 | 30.66421 | 111.72048 | 33106 ft | 509 kts | 85° |
| 2026-05-04 13:37 | 30.66838 | 111.80264 | 33104 ft | 510 kts | 85° |
| 2026-05-04 13:38 | 30.67251 | 111.88495 | 33108 ft | 510 kts | 85° |
| 2026-05-04 13:38 | 30.67667 | 111.96723 | 33107 ft | 510 kts | 85° |
| 2026-05-04 13:39 | 30.68227 | 112.04931 | 33107 ft | 510 kts | 84° |
| 2026-05-04 13:39 | 30.68796 | 112.13149 | 33111 ft | 510 kts | 84° |
| 2026-05-04 13:40 | 30.69381 | 112.21371 | 33107 ft | 511 kts | 84° |
| 2026-05-04 13:40 | 30.69944 | 112.29599 | 33109 ft | 511 kts | 85° |
| 2026-05-04 13:41 | 30.70494 | 112.37834 | 33107 ft | 511 kts | 85° |
| 2026-05-04 13:41 | 30.71043 | 112.46064 | 33108 ft | 511 kts | 85° |
| 2026-05-04 13:42 | 30.71797 | 112.58344 | 33109 ft | 511 kts | 85° |
| 2026-05-04 13:42 | 30.72343 | 112.66591 | 33102 ft | 511 kts | 85° |
| 2026-05-04 13:43 | 30.72876 | 112.74839 | 33104 ft | 512 kts | 85° |
| 2026-05-04 13:43 | 30.73412 | 112.83094 | 33111 ft | 512 kts | 85° |
| 2026-05-04 13:44 | 30.73921 | 112.91340 | 33111 ft | 512 kts | 85° |
| 2026-05-04 13:44 | 30.74434 | 112.99599 | 33115 ft | 512 kts | 85° |
| 2026-05-04 13:45 | 30.74940 | 113.07858 | 33111 ft | 512 kts | 85° |
| 2026-05-04 13:45 | 30.75374 | 113.16128 | 33111 ft | 513 kts | 88° |
| 2026-05-04 13:46 | 30.75581 | 113.24406 | 33106 ft | 513 kts | 88° |
| 2026-05-04 13:46 | 30.75782 | 113.32718 | 33110 ft | 513 kts | 88° |
| 2026-05-04 13:47 | 30.75991 | 113.41011 | 33112 ft | 514 kts | 88° |
| 2026-05-04 13:47 | 30.76193 | 113.49314 | 33110 ft | 514 kts | 88° |
| 2026-05-04 13:48 | 30.76395 | 113.57619 | 33109 ft | 514 kts | 88° |
| 2026-05-04 13:48 | 30.76584 | 113.65938 | 33110 ft | 515 kts | 89° |
| 2026-05-04 13:49 | 30.76771 | 113.74255 | 33102 ft | 515 kts | 88° |
| 2026-05-04 13:49 | 30.76954 | 113.82582 | 33111 ft | 515 kts | 88° |
| 2026-05-04 13:50 | 30.77145 | 113.90909 | 33115 ft | 516 kts | 89° |
| 2026-05-04 13:50 | 30.77314 | 113.99193 | 33120 ft | 516 kts | 89° |
| 2026-05-04 13:51 | 30.77600 | 114.07538 | 33126 ft | 516 kts | 87° |
| 2026-05-04 13:51 | 30.77937 | 114.15886 | 33123 ft | 516 kts | 87° |
| 2026-05-04 13:52 | 30.79287 | 114.24023 | 33125 ft | 514 kts | 68° |
| 2026-05-04 13:52 | 30.80564 | 114.27900 | 33134 ft | 513 kts | 66° |
| 2026-05-04 13:53 | 30.83178 | 114.35637 | 33126 ft | 513 kts | 66° |
| 2026-05-04 13:53 | 30.85703 | 114.43412 | 33122 ft | 513 kts | 67° |
| 2026-05-04 13:54 | 30.89476 | 114.55088 | 33121 ft | 514 kts | 67° |
| 2026-05-04 13:55 | 30.93265 | 114.66756 | 33118 ft | 514 kts | 67° |
| 2026-05-04 13:55 | 30.97040 | 114.78430 | 33122 ft | 513 kts | 67° |
| 2026-05-04 13:56 | 30.99544 | 114.86214 | 33131 ft | 513 kts | 67° |
| 2026-05-04 13:57 | 31.03286 | 114.97901 | 33131 ft | 513 kts | 68° |
| 2026-05-04 13:58 | 31.07957 | 115.12737 | 33141 ft | 513 kts | 67° |
| 2026-05-04 13:58 | 31.11682 | 115.24467 | 33153 ft | 514 kts | 68° |
| 2026-05-04 13:59 | 31.14162 | 115.32288 | 33169 ft | 514 kts | 67° |
| 2026-05-04 14:00 | 31.18009 | 115.43943 | 33157 ft | 513 kts | 66° |
| 2026-05-04 14:00 | 31.21795 | 115.55649 | 33161 ft | 513 kts | 67° |
| 2026-05-04 14:01 | 31.24306 | 115.63455 | 33168 ft | 514 kts | 67° |
| 2026-05-04 14:02 | 31.28064 | 115.75178 | 33156 ft | 514 kts | 67° |
| 2026-05-04 14:02 | 31.30575 | 115.83012 | 33158 ft | 514 kts | 67° |
| 2026-05-04 14:03 | 31.33082 | 115.90840 | 33154 ft | 514 kts | 66° |
| 2026-05-04 14:03 | 31.35645 | 115.98637 | 33153 ft | 514 kts | 66° |
| 2026-05-04 14:04 | 31.39465 | 116.10355 | 33146 ft | 513 kts | 66° |
| 2026-05-04 14:04 | 31.41990 | 116.18167 | 33146 ft | 513 kts | 66° |
| 2026-05-04 14:05 | 31.43503 | 116.26293 | 33138 ft | 516 kts | 92° |
| 2026-05-04 14:05 | 31.43253 | 116.30484 | 33152 ft | 516 kts | 96° |
| 2026-05-04 14:06 | 31.42590 | 116.38856 | 33139 ft | 516 kts | 96° |
| 2026-05-04 14:06 | 31.42032 | 116.47243 | 33135 ft | 517 kts | 95° |
| 2026-05-04 14:07 | 31.41488 | 116.55635 | 33135 ft | 517 kts | 96° |
| 2026-05-04 14:07 | 31.40933 | 116.64015 | 33134 ft | 517 kts | 95° |
| 2026-05-04 14:08 | 31.40363 | 116.72402 | 33141 ft | 517 kts | 96° |
| 2026-05-04 14:08 | 31.39779 | 116.80796 | 33136 ft | 518 kts | 96° |
| 2026-05-04 14:09 | 31.38922 | 116.93397 | 33138 ft | 518 kts | 96° |
| 2026-05-04 14:10 | 31.38043 | 117.05956 | 33138 ft | 519 kts | 96° |
| 2026-05-04 14:10 | 31.37441 | 117.14372 | 33138 ft | 519 kts | 96° |
| 2026-05-04 14:11 | 31.36868 | 117.22793 | 33143 ft | 519 kts | 96° |
| 2026-05-04 14:11 | 31.35977 | 117.35393 | 33139 ft | 519 kts | 96° |
| 2026-05-04 14:12 | 31.35361 | 117.43830 | 33132 ft | 519 kts | 96° |
| 2026-05-04 14:13 | 31.34430 | 117.56467 | 33143 ft | 520 kts | 96° |
| 2026-05-04 14:13 | 31.33811 | 117.64881 | 33139 ft | 520 kts | 96° |
| 2026-05-04 14:14 | 31.33197 | 117.72986 | 33136 ft | 520 kts | 97° |
| 2026-05-04 14:14 | 31.32553 | 117.81373 | 32684 ft | 516 kts | 96° |
| 2026-05-04 14:14 | 31.32248 | 117.85545 | 32423 ft | 513 kts | 96° |
| 2026-05-04 14:15 | 31.31623 | 117.93807 | 31911 ft | 508 kts | 97° |
| 2026-05-04 14:15 | 31.30994 | 118.01992 | 31411 ft | 502 kts | 97° |
| 2026-05-04 14:16 | 31.30363 | 118.10028 | 30941 ft | 497 kts | 97° |
| 2026-05-04 14:16 | 31.30047 | 118.14039 | 30691 ft | 494 kts | 98° |
| 2026-05-04 14:17 | 31.29422 | 118.22002 | 30211 ft | 489 kts | 98° |
| 2026-05-04 14:17 | 31.29111 | 118.25945 | 29950 ft | 486 kts | 98° |
| 2026-05-04 14:17 | 31.28488 | 118.33748 | 29383 ft | 479 kts | 98° |
| 2026-05-04 14:18 | 31.28179 | 118.37612 | 29109 ft | 476 kts | 98° |
| 2026-05-04 14:18 | 31.27564 | 118.45263 | 28562 ft | 470 kts | 97° |
| 2026-05-04 14:19 | 31.26955 | 118.52813 | 28032 ft | 464 kts | 97° |
| 2026-05-04 14:19 | 31.26648 | 118.56558 | 27763 ft | 461 kts | 97° |
| 2026-05-04 14:19 | 31.26339 | 118.60278 | 27507 ft | 458 kts | 97° |
| 2026-05-04 14:19 | 31.26032 | 118.63975 | 27253 ft | 455 kts | 97° |
| 2026-05-04 14:20 | 31.25727 | 118.67642 | 26998 ft | 453 kts | 97° |
| 2026-05-04 14:20 | 31.25424 | 118.71288 | 26746 ft | 450 kts | 97° |
| 2026-05-04 14:20 | 31.25120 | 118.74922 | 26497 ft | 447 kts | 97° |
| 2026-05-04 14:21 | 31.24519 | 118.82109 | 26007 ft | 442 kts | 97° |
| 2026-05-04 14:21 | 31.24221 | 118.85676 | 25764 ft | 440 kts | 96° |
| 2026-05-04 14:21 | 31.23926 | 118.89218 | 25526 ft | 437 kts | 96° |
| 2026-05-04 14:21 | 31.23632 | 118.92737 | 25292 ft | 435 kts | 96° |
| 2026-05-04 14:22 | 31.23334 | 118.96240 | 25050 ft | 432 kts | 96° |
| 2026-05-04 14:22 | 31.23040 | 118.99727 | 24815 ft | 429 kts | 96° |
| 2026-05-04 14:22 | 31.22744 | 119.03191 | 24645 ft | 427 kts | 96° |
| 2026-05-04 14:22 | 31.22447 | 119.06635 | 24621 ft | 427 kts | 96° |
| 2026-05-04 14:23 | 31.21846 | 119.13551 | 24504 ft | 427 kts | 96° |
| 2026-05-04 14:23 | 31.21549 | 119.16990 | 24309 ft | 425 kts | 96° |
| 2026-05-04 14:23 | 31.21257 | 119.20417 | 24094 ft | 423 kts | 96° |
| 2026-05-04 14:24 | 31.20966 | 119.23825 | 23864 ft | 421 kts | 96° |
| 2026-05-04 14:24 | 31.20675 | 119.27224 | 23651 ft | 419 kts | 96° |
| 2026-05-04 14:24 | 31.20383 | 119.30611 | 23381 ft | 417 kts | 96° |
| 2026-05-04 14:24 | 31.20002 | 119.33956 | 23109 ft | 415 kts | 102° |
| 2026-05-04 14:25 | 31.19135 | 119.37153 | 22835 ft | 412 kts | 115° |
| 2026-05-04 14:25 | 31.15810 | 119.42359 | 22293 ft | 400 kts | 144° |
| 2026-05-04 14:25 | 31.13599 | 119.44308 | 22044 ft | 398 kts | 148° |
| 2026-05-04 14:26 | 31.11330 | 119.46210 | 21790 ft | 395 kts | 148° |
| 2026-05-04 14:26 | 31.09142 | 119.48066 | 21532 ft | 394 kts | 147° |
| 2026-05-04 14:26 | 31.06940 | 119.49960 | 21274 ft | 392 kts | 147° |
| 2026-05-04 14:26 | 31.04756 | 119.51854 | 21026 ft | 391 kts | 147° |
| 2026-05-04 14:27 | 31.02582 | 119.53745 | 20774 ft | 389 kts | 147° |
| 2026-05-04 14:27 | 31.00416 | 119.55632 | 20533 ft | 387 kts | 147° |
| 2026-05-04 14:27 | 30.98261 | 119.57509 | 20285 ft | 386 kts | 147° |
| 2026-05-04 14:27 | 30.96116 | 119.59376 | 20040 ft | 384 kts | 147° |
| 2026-05-04 14:28 | 30.93984 | 119.61231 | 19697 ft | 381 kts | 146° |
| 2026-05-04 14:28 | 30.91867 | 119.63072 | 19271 ft | 379 kts | 146° |
| 2026-05-04 14:28 | 30.89755 | 119.64905 | 18827 ft | 378 kts | 146° |
| 2026-05-04 14:28 | 30.87648 | 119.66731 | 18386 ft | 377 kts | 146° |
| 2026-05-04 14:29 | 30.83453 | 119.70370 | 17387 ft | 374 kts | 146° |
| 2026-05-04 14:29 | 30.79296 | 119.73972 | 16435 ft | 371 kts | 145° |
| 2026-05-04 14:30 | 30.77231 | 119.75761 | 15976 ft | 369 kts | 145° |
| 2026-05-04 14:30 | 30.75175 | 119.77538 | 15537 ft | 367 kts | 145° |
| 2026-05-04 14:30 | 30.71510 | 119.81571 | 14652 ft | 365 kts | 121° |
| 2026-05-04 14:31 | 30.70532 | 119.84275 | 14216 ft | 363 kts | 107° |
| 2026-05-04 14:31 | 30.69086 | 119.89863 | 13269 ft | 359 kts | 106° |
| 2026-05-04 14:32 | 30.67624 | 119.95371 | 12355 ft | 353 kts | 107° |
| 2026-05-04 14:32 | 30.66816 | 119.98049 | 11964 ft | 348 kts | 115° |
| 2026-05-04 14:32 | 30.65473 | 120.00286 | 11856 ft | 334 kts | 136° |
| 2026-05-04 14:32 | 30.63664 | 120.01968 | 11856 ft | 333 kts | 144° |
| 2026-05-04 14:33 | 30.61784 | 120.03502 | 11843 ft | 323 kts | 145° |
| 2026-05-04 14:33 | 30.60563 | 120.04494 | 11803 ft | 313 kts | 145° |
| 2026-05-04 14:33 | 30.58235 | 120.06407 | 11320 ft | 308 kts | 144° |
| 2026-05-04 14:33 | 30.57057 | 120.07383 | 11038 ft | 308 kts | 144° |
| 2026-05-04 14:34 | 30.55323 | 120.08825 | 10648 ft | 306 kts | 144° |
| 2026-05-04 14:34 | 30.53604 | 120.10258 | 10292 ft | 303 kts | 143° |
| 2026-05-04 14:34 | 30.51893 | 120.11685 | 9883 ft | 302 kts | 143° |
| 2026-05-04 14:34 | 30.50194 | 120.13103 | 9491 ft | 300 kts | 143° |
| 2026-05-04 14:35 | 30.48495 | 120.14484 | 9071 ft | 298 kts | 148° |
| 2026-05-04 14:35 | 30.46651 | 120.15556 | 8704 ft | 295 kts | 156° |
| 2026-05-04 14:35 | 30.44767 | 120.16494 | 8288 ft | 294 kts | 157° |
| 2026-05-04 14:35 | 30.42887 | 120.17421 | 7898 ft | 293 kts | 156° |
| 2026-05-04 14:36 | 30.41026 | 120.18344 | 7608 ft | 287 kts | 156° |
| 2026-05-04 14:36 | 30.39220 | 120.19244 | 7441 ft | 279 kts | 156° |
| 2026-05-04 14:36 | 30.37468 | 120.20119 | 7302 ft | 271 kts | 156° |
| 2026-05-04 14:36 | 30.35738 | 120.20984 | 7188 ft | 284 kts | 156° |
| 2026-05-04 14:37 | 30.33916 | 120.21896 | 7081 ft | 284 kts | 156° |
| 2026-05-04 14:37 | 30.32120 | 120.22844 | 6964 ft | 283 kts | 153° |
| 2026-05-04 14:37 | 30.30368 | 120.23873 | 6864 ft | 282 kts | 153° |
| 2026-05-04 14:37 | 30.28631 | 120.24988 | 6847 ft | 282 kts | 144° |
| 2026-05-04 14:38 | 30.27333 | 120.26659 | 6851 ft | 281 kts | 116° |
| 2026-05-04 14:38 | 30.26871 | 120.28822 | 6773 ft | 278 kts | 87° |
| 2026-05-04 14:38 | 30.27321 | 120.30930 | 6635 ft | 267 kts | 64° |
| 2026-05-04 14:38 | 30.28174 | 120.32798 | 6500 ft | 258 kts | 60° |
| 2026-05-04 14:39 | 30.29033 | 120.34596 | 6366 ft | 256 kts | 60° |
| 2026-05-04 14:39 | 30.29906 | 120.36463 | 6264 ft | 278 kts | 61° |
| 2026-05-04 14:39 | 30.30807 | 120.38440 | 6160 ft | 276 kts | 61° |
| 2026-05-04 14:40 | 30.32590 | 120.42398 | 5910 ft | 275 kts | 62° |
| 2026-05-04 14:40 | 30.33456 | 120.44339 | 5881 ft | 275 kts | 62° |
| 2026-05-04 14:40 | 30.34327 | 120.46300 | 5701 ft | 272 kts | 62° |
| 2026-05-04 14:40 | 30.35196 | 120.48261 | 5498 ft | 275 kts | 62° |
| 2026-05-04 14:41 | 30.36070 | 120.50239 | 5235 ft | 276 kts | 62° |
| 2026-05-04 14:41 | 30.36938 | 120.52205 | 5011 ft | 275 kts | 63° |
| 2026-05-04 14:41 | 30.38678 | 120.56148 | 4882 ft | 271 kts | 63° |
| 2026-05-04 14:42 | 30.40300 | 120.59809 | 4893 ft | 248 kts | 62° |
| 2026-05-04 14:42 | 30.41089 | 120.61588 | 4905 ft | 248 kts | 63° |
| 2026-05-04 14:42 | 30.41698 | 120.63444 | 4899 ft | 248 kts | 83° |
| 2026-05-04 14:43 | 30.41446 | 120.65382 | 4881 ft | 248 kts | 117° |
| 2026-05-04 14:43 | 30.40319 | 120.66835 | 4673 ft | 242 kts | 150° |
| 2026-05-04 14:43 | 30.38821 | 120.67670 | 4388 ft | 237 kts | 160° |
| 2026-05-04 14:43 | 30.37257 | 120.68010 | 4195 ft | 224 kts | 189° |
| 2026-05-04 14:44 | 30.35912 | 120.67288 | 4023 ft | 210 kts | 228° |
| 2026-05-04 14:44 | 30.35321 | 120.65841 | 3934 ft | 194 kts | 259° |
| 2026-05-04 14:44 | 30.35134 | 120.64328 | 3806 ft | 188 kts | 259° |
| 2026-05-04 14:44 | 30.34844 | 120.62858 | 3622 ft | 187 kts | 251° |
| 2026-05-04 14:45 | 30.34385 | 120.61460 | 3425 ft | 185 kts | 244° |
| 2026-05-04 14:45 | 30.33812 | 120.60131 | 3185 ft | 184 kts | 240° |
| 2026-05-04 14:45 | 30.33193 | 120.58841 | 2957 ft | 183 kts | 239° |
| 2026-05-04 14:45 | 30.32561 | 120.57572 | 2724 ft | 182 kts | 239° |
| 2026-05-04 14:46 | 30.31931 | 120.56315 | 2484 ft | 180 kts | 237° |
| 2026-05-04 14:46 | 30.31262 | 120.55075 | 2246 ft | 178 kts | 233° |
| 2026-05-04 14:46 | 30.30525 | 120.53949 | 1930 ft | 177 kts | 227° |
| 2026-05-04 14:46 | 30.29734 | 120.52873 | 1659 ft | 175 kts | 227° |
| 2026-05-04 14:47 | 30.28936 | 120.51799 | 1270 ft | 178 kts | 229° |
| 2026-05-04 14:47 | 30.28216 | 120.50619 | 954 ft | 178 kts | 237° |
| 2026-05-04 14:47 | 30.27660 | 120.49332 | 887 ft | 182 kts | 245° |
| 2026-05-04 14:47 | 30.27135 | 120.48062 | 929 ft | 160 kts | 238° |
| 2026-05-04 14:48 | 30.26577 | 120.47034 | 760 ft | 150 kts | 237° |
| 2026-05-04 14:48 | 30.26096 | 120.45981 | 453 ft | 144 kts | 242° |
| 2026-05-04 14:48 | 30.25632 | 120.44925 | 239 ft | 148 kts | 242° |
| 2026-05-04 14:48 | 30.25167 | 120.43869 | 60 ft | 148 kts | 242° |
| 2026-05-04 14:49 | 30.24750 | 120.42914 | 37 ft | 115 kts | 241° |
| 2026-05-04 14:49 | 30.24521 | 120.42430 | 35 ft | 35 kts | 241° |
| 2026-05-04 14:49 | 30.24392 | 120.42247 | 36 ft | 5 kts | 220° |
| 2026-05-04 14:49 | 30.24351 | 120.42210 | 37 ft | 9 kts | 217° |
| 2026-05-04 14:50 | 30.24289 | 120.42161 | 38 ft | 13 kts | 213° |
| 2026-05-04 14:50 | 30.24243 | 120.42127 | 38 ft | 2 kts | 212° |
| 2026-05-04 14:50 | 30.24213 | 120.42109 | 38 ft | 7 kts | 206° |
| 2026-05-04 14:50 | 30.24168 | 120.42126 | 38 ft | 3 kts | 151° |
| 2026-05-04 14:51 | 30.24155 | 120.42135 | 38 ft | 0 kts | 150° |
| 2026-05-04 14:51 | 30.24149 | 120.42139 | 38 ft | 3 kts | 150° |
| 2026-05-04 14:51 | 30.24105 | 120.42163 | 38 ft | 11 kts | 158° |
| 2026-05-04 14:52 | 30.24022 | 120.42193 | 38 ft | 15 kts | 178° |
| 2026-05-04 14:52 | 30.23974 | 120.42203 | 38 ft | 9 kts | 164° |
| 2026-05-04 14:52 | 30.23897 | 120.42244 | 38 ft | 14 kts | 151° |
| 2026-05-04 14:52 | 30.23876 | 120.42258 | 38 ft | 0 kts | 150° |
| 2026-05-04 14:53 | 30.23865 | 120.42265 | 38 ft | 5 kts | 153° |
| 2026-05-04 14:53 | 30.23822 | 120.42291 | 38 ft | 7 kts | 149° |
| 2026-05-04 14:53 | 30.23818 | 120.42335 | 38 ft | 4 kts | 70° |
| 2026-05-04 14:54 | 30.23824 | 120.42355 | 38 ft | 2 kts | 69° |
| 2026-05-04 14:54 | 30.23831 | 120.42376 | 38 ft | 2 kts | 66° |
| 2026-05-04 14:54 | 30.23832 | 120.42378 | 38 ft | 2 kts | 66° |
| 2026-05-04 14:54 | 30.23841 | 120.42400 | 38 ft | 0 kts | 66° |